sensor_id;sensor_type;location;lat;lon;timestamp;pressure;altitude;pressure_sealevel;temperature;humidity
57050;BME280;42935;50.966;16.992;2023-05-23T00:03:00;101233.27;;;11.28;98.65
57050;BME280;42935;50.966;16.992;2023-05-23T00:06:19;101235.89;;;11.36;97.47
57050;BME280;42935;50.966;16.992;2023-05-23T00:09:43;101243.20;;;11.36;97.32
57050;BME280;42935;50.966;16.992;2023-05-23T00:13:02;101251.01;;;11.22;99.97
57050;BME280;42935;50.966;16.992;2023-05-23T00:16:24;101247.65;;;10.88;100.00
57050;BME280;42935;50.966;16.992;2023-05-23T00:19:47;101245.69;;;10.72;100.00
57050;BME280;42935;50.966;16.992;2023-05-23T00:23:04;101242.00;;;10.93;100.00
57050;BME280;42935;50.966;16.992;2023-05-23T00:26:26;101239.89;;;10.94;100.00
57050;BME280;42935;50.966;16.992;2023-05-23T00:29:46;101241.34;;;10.96;100.00
57050;BME280;42935;50.966;16.992;2023-05-23T00:33:03;101236.09;;;10.69;100.00
57050;BME280;42935;50.966;16.992;2023-05-23T00:36:21;101232.30;;;10.80;100.00
57050;BME280;42935;50.966;16.992;2023-05-23T00:39:34;101240.08;;;10.85;100.00
57050;BME280;42935;50.966;16.992;2023-05-23T00:42:50;101227.38;;;10.70;100.00
57050;BME280;42935;50.966;16.992;2023-05-23T00:46:09;101235.75;;;10.70;100.00
57050;BME280;42935;50.966;16.992;2023-05-23T00:49:27;101236.87;;;10.74;100.00
57050;BME280;42935;50.966;16.992;2023-05-23T00:52:45;101236.38;;;10.60;100.00
57050;BME280;42935;50.966;16.992;2023-05-23T00:56:06;101233.89;;;10.52;100.00
57050;BME280;42935;50.966;16.992;2023-05-23T00:59:25;101217.40;;;10.43;100.00
57050;BME280;42935;50.966;16.992;2023-05-23T01:02:46;101229.20;;;10.57;100.00
57050;BME280;42935;50.966;16.992;2023-05-23T01:06:05;101230.16;;;10.60;100.00
57050;BME280;42935;50.966;16.992;2023-05-23T01:09:25;101228.48;;;10.52;100.00
57050;BME280;42935;50.966;16.992;2023-05-23T01:12:57;101225.38;;;10.33;100.00
57050;BME280;42935;50.966;16.992;2023-05-23T01:16:19;101227.20;;;10.08;100.00
57050;BME280;42935;50.966;16.992;2023-05-23T01:30:00;101223.59;;;10.39;100.00
57050;BME280;42935;50.966;16.992;2023-05-23T01:33:19;101217.19;;;10.40;100.00
57050;BME280;42935;50.966;16.992;2023-05-23T01:36:41;101227.23;;;10.31;100.00
57050;BME280;42935;50.966;16.992;2023-05-23T01:39:59;101224.42;;;10.37;100.00
57050;BME280;42935;50.966;16.992;2023-05-23T01:43:25;101223.79;;;10.23;100.00
57050;BME280;42935;50.966;16.992;2023-05-23T01:46:43;101209.82;;;10.28;100.00
57050;BME280;42935;50.966;16.992;2023-05-23T01:50:07;101218.90;;;10.22;100.00
57050;BME280;42935;50.966;16.992;2023-05-23T01:53:36;101217.61;;;10.15;100.00
57050;BME280;42935;50.966;16.992;2023-05-23T01:56:57;101214.38;;;10.24;100.00
57050;BME280;42935;50.966;16.992;2023-05-23T02:00:16;101209.27;;;10.20;100.00
57050;BME280;42935;50.966;16.992;2023-05-23T02:03:34;101200.45;;;9.95;100.00
57050;BME280;42935;50.966;16.992;2023-05-23T02:06:51;101190.16;;;9.61;100.00
57050;BME280;42935;50.966;16.992;2023-05-23T02:10:08;101190.15;;;9.62;100.00
57050;BME280;42935;50.966;16.992;2023-05-23T02:13:26;101187.38;;;9.34;100.00
57050;BME280;42935;50.966;16.992;2023-05-23T02:16:43;101186.50;;;9.31;100.00
57050;BME280;42935;50.966;16.992;2023-05-23T02:19:58;101182.48;;;9.26;100.00
57050;BME280;42935;50.966;16.992;2023-05-23T02:23:17;101175.72;;;9.31;100.00
57050;BME280;42935;50.966;16.992;2023-05-23T02:26:34;101178.72;;;9.57;100.00
57050;BME280;42935;50.966;16.992;2023-05-23T02:29:55;101177.71;;;9.62;100.00
57050;BME280;42935;50.966;16.992;2023-05-23T02:33:14;101175.63;;;9.48;100.00
57050;BME280;42935;50.966;16.992;2023-05-23T02:36:32;101169.91;;;9.39;100.00
57050;BME280;42935;50.966;16.992;2023-05-23T02:40:00;101171.05;;;9.26;100.00
57050;BME280;42935;50.966;16.992;2023-05-23T02:43:20;101162.20;;;9.24;100.00
57050;BME280;42935;50.966;16.992;2023-05-23T02:46:45;101160.31;;;9.41;100.00
57050;BME280;42935;50.966;16.992;2023-05-23T02:50:05;101157.77;;;9.53;100.00
57050;BME280;42935;50.966;16.992;2023-05-23T02:53:27;101161.34;;;9.43;100.00
57050;BME280;42935;50.966;16.992;2023-05-23T02:56:45;101157.05;;;9.26;100.00
57050;BME280;42935;50.966;16.992;2023-05-23T03:00:03;101153.54;;;9.25;100.00
57050;BME280;42935;50.966;16.992;2023-05-23T03:03:21;101151.33;;;9.26;100.00
57050;BME280;42935;50.966;16.992;2023-05-23T03:06:42;101132.38;;;9.17;100.00
57050;BME280;42935;50.966;16.992;2023-05-23T03:09:58;101145.87;;;9.39;100.00
57050;BME280;42935;50.966;16.992;2023-05-23T03:13:24;101146.27;;;9.40;100.00
57050;BME280;42935;50.966;16.992;2023-05-23T03:16:42;101146.29;;;9.52;100.00
57050;BME280;42935;50.966;16.992;2023-05-23T03:20:00;101146.14;;;9.72;100.00
57050;BME280;42935;50.966;16.992;2023-05-23T03:23:22;101140.81;;;9.73;100.00
57050;BME280;42935;50.966;16.992;2023-05-23T03:26:43;101133.96;;;9.73;100.00
57050;BME280;42935;50.966;16.992;2023-05-23T03:30:06;101142.39;;;9.89;100.00
57050;BME280;42935;50.966;16.992;2023-05-23T03:33:32;101142.35;;;10.02;100.00
57050;BME280;42935;50.966;16.992;2023-05-23T03:36:50;101138.94;;;9.99;100.00
57050;BME280;42935;50.966;16.992;2023-05-23T03:40:11;101127.66;;;9.98;100.00
57050;BME280;42935;50.966;16.992;2023-05-23T03:43:28;101136.59;;;9.84;100.00
57050;BME280;42935;50.966;16.992;2023-05-23T03:46:46;101136.60;;;9.93;100.00
57050;BME280;42935;50.966;16.992;2023-05-23T03:50:07;101141.50;;;9.79;100.00
57050;BME280;42935;50.966;16.992;2023-05-23T03:53:24;101143.73;;;10.16;100.00
57050;BME280;42935;50.966;16.992;2023-05-23T03:56:45;101141.52;;;10.38;100.00
57050;BME280;42935;50.966;16.992;2023-05-23T04:00:04;101134.07;;;10.34;100.00
57050;BME280;42935;50.966;16.992;2023-05-23T04:03:25;101143.51;;;10.36;100.00
57050;BME280;42935;50.966;16.992;2023-05-23T04:06:42;101141.09;;;10.22;100.00
57050;BME280;42935;50.966;16.992;2023-05-23T04:10:00;101136.14;;;10.27;100.00
57050;BME280;42935;50.966;16.992;2023-05-23T04:13:27;101136.13;;;10.39;100.00
57050;BME280;42935;50.966;16.992;2023-05-23T04:16:46;101131.36;;;10.33;100.00
57050;BME280;42935;50.966;16.992;2023-05-23T04:20:08;101130.10;;;10.35;100.00
57050;BME280;42935;50.966;16.992;2023-05-23T04:23:22;101126.68;;;10.43;100.00
57050;BME280;42935;50.966;16.992;2023-05-23T04:26:39;101120.81;;;10.59;100.00
57050;BME280;42935;50.966;16.992;2023-05-23T04:30:02;101124.80;;;10.67;100.00
57050;BME280;42935;50.966;16.992;2023-05-23T04:33:30;101112.09;;;10.85;100.00
57050;BME280;42935;50.966;16.992;2023-05-23T04:37:19;101113.41;;;11.21;100.00
57050;BME280;42935;50.966;16.992;2023-05-23T04:40:40;101105.13;;;11.31;100.00
57050;BME280;42935;50.966;16.992;2023-05-23T04:44:05;101108.05;;;11.51;100.00
57050;BME280;42935;50.966;16.992;2023-05-23T04:47:29;101100.72;;;11.75;100.00
57050;BME280;42935;50.966;16.992;2023-05-23T04:50:56;101096.65;;;11.92;100.00
57050;BME280;42935;50.966;16.992;2023-05-23T04:54:20;101093.89;;;12.13;100.00
57050;BME280;42935;50.966;16.992;2023-05-23T04:57:43;101089.52;;;12.20;100.00
57050;BME280;42935;50.966;16.992;2023-05-23T05:01:01;101098.66;;;12.36;100.00
57050;BME280;42935;50.966;16.992;2023-05-23T05:04:26;101099.05;;;12.39;100.00
57050;BME280;42935;50.966;16.992;2023-05-23T05:07:45;101094.63;;;12.56;100.00
57050;BME280;42935;50.966;16.992;2023-05-23T05:11:03;101095.59;;;12.74;100.00
57050;BME280;42935;50.966;16.992;2023-05-23T05:14:25;101093.08;;;12.68;100.00
57050;BME280;42935;50.966;16.992;2023-05-23T05:17:45;101091.08;;;12.72;100.00
57050;BME280;42935;50.966;16.992;2023-05-23T05:21:03;101085.30;;;13.09;100.00
57050;BME280;42935;50.966;16.992;2023-05-23T05:24:28;101082.92;;;13.34;100.00
57050;BME280;42935;50.966;16.992;2023-05-23T05:27:51;101077.95;;;13.50;100.00
57050;BME280;42935;50.966;16.992;2023-05-23T05:31:09;101075.16;;;13.60;100.00
57050;BME280;42935;50.966;16.992;2023-05-23T05:34:34;101070.38;;;13.71;100.00
57050;BME280;42935;50.966;16.992;2023-05-23T05:38:00;101068.13;;;13.77;100.00
57050;BME280;42935;50.966;16.992;2023-05-23T05:41:21;101066.82;;;13.91;100.00
57050;BME280;42935;50.966;16.992;2023-05-23T05:44:38;101066.62;;;14.11;100.00
57050;BME280;42935;50.966;16.992;2023-05-23T05:47:52;101072.82;;;14.30;100.00
57050;BME280;42935;50.966;16.992;2023-05-23T05:51:13;101071.45;;;14.57;100.00
57050;BME280;42935;50.966;16.992;2023-05-23T05:54:39;101066.80;;;15.00;100.00
57050;BME280;42935;50.966;16.992;2023-05-23T05:57:56;101053.36;;;15.11;100.00
57050;BME280;42935;50.966;16.992;2023-05-23T06:01:15;101054.07;;;15.29;100.00
57050;BME280;42935;50.966;16.992;2023-05-23T06:04:33;101055.30;;;15.57;99.97
57050;BME280;42935;50.966;16.992;2023-05-23T06:07:51;101039.95;;;15.74;99.90
57050;BME280;42935;50.966;16.992;2023-05-23T06:11:09;101062.33;;;15.70;92.61
57050;BME280;42935;50.966;16.992;2023-05-23T06:14:31;101075.69;;;15.71;95.57
57050;BME280;42935;50.966;16.992;2023-05-23T06:17:50;101065.98;;;15.54;89.17
57050;BME280;42935;50.966;16.992;2023-05-23T06:21:11;101066.30;;;15.21;90.47
57050;BME280;42935;50.966;16.992;2023-05-23T06:24:25;101065.17;;;15.27;94.39
57050;BME280;42935;50.966;16.992;2023-05-23T06:27:42;101058.30;;;15.38;94.43
57050;BME280;42935;50.966;16.992;2023-05-23T06:30:58;101055.77;;;15.68;94.76
57050;BME280;42935;50.966;16.992;2023-05-23T06:34:17;101065.31;;;15.98;98.06
57050;BME280;42935;50.966;16.992;2023-05-23T06:37:35;101041.66;;;15.95;95.07
57050;BME280;42935;50.966;16.992;2023-05-23T06:41:02;101042.89;;;16.17;96.07
57050;BME280;42935;50.966;16.992;2023-05-23T06:44:28;101043.33;;;16.45;92.06
57050;BME280;42935;50.966;16.992;2023-05-23T06:47:46;101049.59;;;16.50;91.29
57050;BME280;42935;50.966;16.992;2023-05-23T06:51:08;101048.16;;;16.69;92.65
57050;BME280;42935;50.966;16.992;2023-05-23T06:54:26;101039.91;;;16.81;87.74
57050;BME280;42935;50.966;16.992;2023-05-23T06:57:48;101040.70;;;17.62;89.64
57050;BME280;42935;50.966;16.992;2023-05-23T07:01:12;101037.88;;;17.62;83.60
57050;BME280;42935;50.966;16.992;2023-05-23T07:04:33;101035.92;;;18.02;81.74
57050;BME280;42935;50.966;16.992;2023-05-23T07:07:59;101033.53;;;18.03;90.85
57050;BME280;42935;50.966;16.992;2023-05-23T07:11:16;101024.21;;;18.46;80.43
57050;BME280;42935;50.966;16.992;2023-05-23T07:14:32;101012.14;;;18.82;85.12
57050;BME280;42935;50.966;16.992;2023-05-23T07:17:53;101018.98;;;18.84;77.58
57050;BME280;42935;50.966;16.992;2023-05-23T07:21:10;101013.82;;;19.10;76.43
57050;BME280;42935;50.966;16.992;2023-05-23T07:24:28;101007.04;;;19.45;77.61
57050;BME280;42935;50.966;16.992;2023-05-23T07:27:46;101008.65;;;19.44;79.65
57050;BME280;42935;50.966;16.992;2023-05-23T07:31:03;101005.62;;;19.53;78.23
57050;BME280;42935;50.966;16.992;2023-05-23T07:34:30;100999.46;;;19.38;77.04
57050;BME280;42935;50.966;16.992;2023-05-23T07:37:46;100997.52;;;19.84;75.35
57050;BME280;42935;50.966;16.992;2023-05-23T07:41:08;101000.49;;;19.45;77.34
57050;BME280;42935;50.966;16.992;2023-05-23T07:44:27;101005.45;;;19.53;76.84
57050;BME280;42935;50.966;16.992;2023-05-23T07:47:52;101007.53;;;19.81;77.04
57050;BME280;42935;50.966;16.992;2023-05-23T07:51:08;100995.34;;;19.81;74.93
57050;BME280;42935;50.966;16.992;2023-05-23T07:54:30;101005.37;;;20.18;73.72
57050;BME280;42935;50.966;16.992;2023-05-23T07:58:21;101013.18;;;20.48;72.52
57050;BME280;42935;50.966;16.992;2023-05-23T08:01:48;101016.52;;;19.83;77.31
57050;BME280;42935;50.966;16.992;2023-05-23T08:05:07;101015.05;;;19.93;74.13
57050;BME280;42935;50.966;16.992;2023-05-23T08:08:29;101017.18;;;20.35;76.57
57050;BME280;42935;50.966;16.992;2023-05-23T08:11:50;101023.84;;;19.94;76.27
57050;BME280;42935;50.966;16.992;2023-05-23T08:15:11;101016.98;;;19.97;74.75
57050;BME280;42935;50.966;16.992;2023-05-23T08:18:31;101025.12;;;20.29;73.92
57050;BME280;42935;50.966;16.992;2023-05-23T08:21:51;101027.17;;;20.59;70.04
57050;BME280;42935;50.966;16.992;2023-05-23T08:25:13;101036.65;;;20.45;72.36
57050;BME280;42935;50.966;16.992;2023-05-23T08:28:35;101044.09;;;20.05;68.70
57050;BME280;42935;50.966;16.992;2023-05-23T08:31:52;101054.35;;;19.52;70.88
57050;BME280;42935;50.966;16.992;2023-05-23T08:35:32;101058.98;;;19.00;72.45
57050;BME280;42935;50.966;16.992;2023-05-23T08:38:51;101056.80;;;19.16;72.72
57050;BME280;42935;50.966;16.992;2023-05-23T08:42:09;101056.91;;;19.02;71.41
57050;BME280;42935;50.966;16.992;2023-05-23T08:45:35;101048.92;;;19.51;71.62
57050;BME280;42935;50.966;16.992;2023-05-23T08:48:54;101031.77;;;19.39;71.23
57050;BME280;42935;50.966;16.992;2023-05-23T08:52:11;101030.80;;;19.62;75.13
57050;BME280;42935;50.966;16.992;2023-05-23T08:55:34;101025.11;;;19.60;71.97
57050;BME280;42935;50.966;16.992;2023-05-23T08:58:58;101029.26;;;19.44;74.14
57050;BME280;42935;50.966;16.992;2023-05-23T09:02:20;101033.24;;;19.28;80.63
57050;BME280;42935;50.966;16.992;2023-05-23T09:05:38;101032.88;;;18.98;82.63
57050;BME280;42935;50.966;16.992;2023-05-23T09:08:51;101042.88;;;18.69;85.54
57050;BME280;42935;50.966;16.992;2023-05-23T09:12:09;101034.45;;;18.93;84.05
57050;BME280;42935;50.966;16.992;2023-05-23T09:15:31;101049.41;;;18.80;91.38
57050;BME280;42935;50.966;16.992;2023-05-23T09:18:48;101055.38;;;18.85;92.03
57050;BME280;42935;50.966;16.992;2023-05-23T09:22:04;101071.65;;;18.27;91.50
57050;BME280;42935;50.966;16.992;2023-05-23T09:25:17;101074.52;;;18.06;100.00
57050;BME280;42935;50.966;16.992;2023-05-23T09:28:34;101081.68;;;17.18;100.00
57050;BME280;42935;50.966;16.992;2023-05-23T09:35:35;101087.13;;;16.37;100.00
57050;BME280;42935;50.966;16.992;2023-05-23T09:38:51;101099.16;;;16.00;100.00
57050;BME280;42935;50.966;16.992;2023-05-23T09:42:08;101095.06;;;15.93;100.00
57050;BME280;42935;50.966;16.992;2023-05-23T09:45:29;101082.30;;;15.99;100.00
57050;BME280;42935;50.966;16.992;2023-05-23T09:48:51;101093.45;;;16.25;100.00
57050;BME280;42935;50.966;16.992;2023-05-23T09:52:14;101094.64;;;16.21;100.00
57050;BME280;42935;50.966;16.992;2023-05-23T09:55:35;101093.44;;;16.14;100.00
57050;BME280;42935;50.966;16.992;2023-05-23T09:58:58;101083.16;;;16.43;100.00
57050;BME280;42935;50.966;16.992;2023-05-23T10:02:39;101072.56;;;16.84;100.00
57050;BME280;42935;50.966;16.992;2023-05-23T10:05:56;101079.82;;;17.05;100.00
57050;BME280;42935;50.966;16.992;2023-05-23T10:09:22;101075.79;;;17.36;100.00
57050;BME280;42935;50.966;16.992;2023-05-23T10:12:47;101071.59;;;17.14;100.00
57050;BME280;42935;50.966;16.992;2023-05-23T10:19:56;101072.29;;;16.94;100.00
57050;BME280;42935;50.966;16.992;2023-05-23T10:23:19;101084.34;;;17.15;100.00
57050;BME280;42935;50.966;16.992;2023-05-23T10:26:40;101078.04;;;17.90;100.00
57050;BME280;42935;50.966;16.992;2023-05-23T10:30:00;101066.45;;;18.16;100.00
57050;BME280;42935;50.966;16.992;2023-05-23T10:33:18;101069.24;;;18.68;100.00
57050;BME280;42935;50.966;16.992;2023-05-23T10:40:21;101063.31;;;19.06;100.00
57050;BME280;42935;50.966;16.992;2023-05-23T10:47:03;101053.73;;;19.61;100.00
57050;BME280;42935;50.966;16.992;2023-05-23T10:53:53;101062.65;;;19.91;100.00
57050;BME280;42935;50.966;16.992;2023-05-23T10:57:14;101059.49;;;20.19;100.00
57050;BME280;42935;50.966;16.992;2023-05-23T11:00:30;101053.59;;;20.16;100.00
57050;BME280;42935;50.966;16.992;2023-05-23T11:03:56;101057.98;;;19.80;100.00
57050;BME280;42935;50.966;16.992;2023-05-23T11:10:52;101047.55;;;20.22;100.00
57050;BME280;42935;50.966;16.992;2023-05-23T11:14:15;101051.13;;;21.09;100.00
57050;BME280;42935;50.966;16.992;2023-05-23T11:17:31;101047.02;;;21.18;97.54
57050;BME280;42935;50.966;16.992;2023-05-23T11:20:53;101049.64;;;21.21;100.00
57050;BME280;42935;50.966;16.992;2023-05-23T11:24:10;101041.41;;;21.42;89.45
57050;BME280;42935;50.966;16.992;2023-05-23T11:27:34;101034.48;;;21.37;94.43
57050;BME280;42935;50.966;16.992;2023-05-23T11:30:56;101036.42;;;22.03;95.21
57050;BME280;42935;50.966;16.992;2023-05-23T11:34:13;101040.54;;;21.81;92.86
57050;BME280;42935;50.966;16.992;2023-05-23T11:37:37;101033.60;;;21.26;90.52
57050;BME280;42935;50.966;16.992;2023-05-23T11:40:56;101033.77;;;22.12;90.05
57050;BME280;42935;50.966;16.992;2023-05-23T11:44:13;101029.63;;;22.63;88.18
57050;BME280;42935;50.966;16.992;2023-05-23T11:47:31;101025.70;;;22.91;85.71
57050;BME280;42935;50.966;16.992;2023-05-23T11:50:53;101027.09;;;23.38;89.98
57050;BME280;42935;50.966;16.992;2023-05-23T11:54:13;101015.13;;;23.05;83.36
57050;BME280;42935;50.966;16.992;2023-05-23T11:57:32;101020.91;;;22.91;82.11
57050;BME280;42935;50.966;16.992;2023-05-23T12:01:05;101021.24;;;22.95;83.94
57050;BME280;42935;50.966;16.992;2023-05-23T12:04:24;101025.02;;;22.02;86.85
57050;BME280;42935;50.966;16.992;2023-05-23T12:07:41;101015.80;;;22.65;79.18
57050;BME280;42935;50.966;16.992;2023-05-23T12:11:02;101011.22;;;22.92;78.46
57050;BME280;42935;50.966;16.992;2023-05-23T12:14:20;101024.27;;;23.05;76.78
57050;BME280;42935;50.966;16.992;2023-05-23T12:17:44;101030.63;;;22.10;77.43
57050;BME280;42935;50.966;16.992;2023-05-23T12:21:05;101025.53;;;22.14;82.16
57050;BME280;42935;50.966;16.992;2023-05-23T12:24:27;101032.09;;;22.45;77.00
57050;BME280;42935;50.966;16.992;2023-05-23T12:27:48;101029.82;;;22.72;78.42
57050;BME280;42935;50.966;16.992;2023-05-23T12:31:17;101020.95;;;22.38;74.79
57050;BME280;42935;50.966;16.992;2023-05-23T12:34:33;101025.12;;;22.44;80.19
57050;BME280;42935;50.966;16.992;2023-05-23T12:37:51;101019.63;;;21.60;78.96
57050;BME280;42935;50.966;16.992;2023-05-23T12:41:16;101021.38;;;22.31;78.86
57050;BME280;42935;50.966;16.992;2023-05-23T12:44:41;101013.05;;;22.53;75.52
57050;BME280;42935;50.966;16.992;2023-05-23T12:48:05;101011.88;;;23.15;71.49
57050;BME280;42935;50.966;16.992;2023-05-23T12:51:24;101013.96;;;23.13;69.04
57050;BME280;42935;50.966;16.992;2023-05-23T12:54:45;101017.88;;;22.65;72.11
57050;BME280;42935;50.966;16.992;2023-05-23T12:58:08;101012.03;;;21.99;74.49
57050;BME280;42935;50.966;16.992;2023-05-23T13:01:27;101010.13;;;21.89;74.37
57050;BME280;42935;50.966;16.992;2023-05-23T13:04:41;101010.17;;;21.61;75.11
57050;BME280;42935;50.966;16.992;2023-05-23T13:07:54;101008.95;;;20.91;74.93
57050;BME280;42935;50.966;16.992;2023-05-23T13:11:16;101005.64;;;21.08;73.15
57050;BME280;42935;50.966;16.992;2023-05-23T13:14:33;100993.57;;;21.37;72.26
57050;BME280;42935;50.966;16.992;2023-05-23T13:17:51;100995.06;;;21.04;72.06
57050;BME280;42935;50.966;16.992;2023-05-23T13:21:09;100988.04;;;21.45;70.55
57050;BME280;42935;50.966;16.992;2023-05-23T13:24:33;100971.38;;;21.77;70.29
57050;BME280;42935;50.966;16.992;2023-05-23T13:27:48;100970.70;;;22.14;70.09
57050;BME280;42935;50.966;16.992;2023-05-23T13:31:02;100966.21;;;22.53;69.40
57050;BME280;42935;50.966;16.992;2023-05-23T13:34:20;100967.19;;;23.75;65.19
57050;BME280;42935;50.966;16.992;2023-05-23T13:37:38;100972.63;;;24.61;63.22
57050;BME280;42935;50.966;16.992;2023-05-23T13:41:26;100966.30;;;24.19;63.14
57050;BME280;42935;50.966;16.992;2023-05-23T13:44:43;100979.13;;;25.13;60.86
57050;BME280;42935;50.966;16.992;2023-05-23T13:48:01;100983.78;;;24.80;59.32
57050;BME280;42935;50.966;16.992;2023-05-23T13:51:22;100981.30;;;24.31;61.59
57050;BME280;42935;50.966;16.992;2023-05-23T13:54:39;100982.45;;;25.05;64.36
57050;BME280;42935;50.966;16.992;2023-05-23T13:57:57;100975.58;;;25.48;62.14
57050;BME280;42935;50.966;16.992;2023-05-23T14:01:15;100980.27;;;25.66;60.10
57050;BME280;42935;50.966;16.992;2023-05-23T14:04:38;100984.60;;;25.06;59.62
57050;BME280;42935;50.966;16.992;2023-05-23T14:07:53;100996.63;;;24.94;59.47
57050;BME280;42935;50.966;16.992;2023-05-23T14:11:13;101009.70;;;21.75;65.93
57050;BME280;42935;50.966;16.992;2023-05-23T14:14:30;101003.55;;;21.96;68.49
57050;BME280;42935;50.966;16.992;2023-05-23T14:17:48;101010.59;;;22.52;67.96
57050;BME280;42935;50.966;16.992;2023-05-23T14:21:11;101018.15;;;21.39;69.54
57050;BME280;42935;50.966;16.992;2023-05-23T14:24:28;101024.37;;;20.95;77.88
57050;BME280;42935;50.966;16.992;2023-05-23T14:27:45;101024.67;;;20.80;81.77
57050;BME280;42935;50.966;16.992;2023-05-23T14:31:07;101021.96;;;20.22;83.82
57050;BME280;42935;50.966;16.992;2023-05-23T14:34:25;101023.06;;;20.21;89.05
57050;BME280;42935;50.966;16.992;2023-05-23T14:37:41;101024.59;;;19.96;98.40
57050;BME280;42935;50.966;16.992;2023-05-23T14:41:01;101031.20;;;19.62;100.00
57050;BME280;42935;50.966;16.992;2023-05-23T14:44:19;101027.70;;;19.53;100.00
57050;BME280;42935;50.966;16.992;2023-05-23T14:47:37;101029.93;;;19.57;100.00
57050;BME280;42935;50.966;16.992;2023-05-23T14:51:01;101025.08;;;20.28;100.00
57050;BME280;42935;50.966;16.992;2023-05-23T14:54:27;101017.88;;;19.69;100.00
57050;BME280;42935;50.966;16.992;2023-05-23T14:57:44;101023.09;;;19.24;100.00
57050;BME280;42935;50.966;16.992;2023-05-23T15:01:11;101032.51;;;19.00;100.00
57050;BME280;42935;50.966;16.992;2023-05-23T15:04:30;101024.18;;;19.29;100.00
57050;BME280;42935;50.966;16.992;2023-05-23T15:07:48;101015.93;;;19.51;100.00
57050;BME280;42935;50.966;16.992;2023-05-23T15:11:06;101006.46;;;19.61;100.00
57050;BME280;42935;50.966;16.992;2023-05-23T15:14:25;101019.23;;;19.54;100.00
57050;BME280;42935;50.966;16.992;2023-05-23T15:17:46;101013.12;;;19.94;100.00
57050;BME280;42935;50.966;16.992;2023-05-23T15:21:04;101015.43;;;20.87;100.00
57050;BME280;42935;50.966;16.992;2023-05-23T15:24:53;101015.75;;;20.37;100.00
57050;BME280;42935;50.966;16.992;2023-05-23T15:28:10;101011.88;;;20.39;100.00
57050;BME280;42935;50.966;16.992;2023-05-23T15:31:31;101016.11;;;19.65;100.00
57050;BME280;42935;50.966;16.992;2023-05-23T15:34:48;101024.35;;;19.42;100.00
57050;BME280;42935;50.966;16.992;2023-05-23T15:38:01;101019.78;;;19.13;100.00
57050;BME280;42935;50.966;16.992;2023-05-23T15:41:17;101018.45;;;19.32;100.00
57050;BME280;42935;50.966;16.992;2023-05-23T15:44:38;101022.04;;;18.92;100.00
57050;BME280;42935;50.966;16.992;2023-05-23T15:47:57;101017.16;;;18.65;100.00
57050;BME280;42935;50.966;16.992;2023-05-23T15:51:15;101017.37;;;18.71;100.00
57050;BME280;42935;50.966;16.992;2023-05-23T15:54:31;101006.83;;;19.24;100.00
57050;BME280;42935;50.966;16.992;2023-05-23T15:57:53;100997.24;;;19.56;100.00
57050;BME280;42935;50.966;16.992;2023-05-23T16:01:17;100997.09;;;19.56;100.00
57050;BME280;42935;50.966;16.992;2023-05-23T16:04:31;100999.36;;;19.71;100.00
57050;BME280;42935;50.966;16.992;2023-05-23T16:07:56;100991.77;;;19.38;100.00
57050;BME280;42935;50.966;16.992;2023-05-23T16:11:49;101001.11;;;19.22;100.00
57050;BME280;42935;50.966;16.992;2023-05-23T16:15:10;100998.58;;;19.30;100.00
57050;BME280;42935;50.966;16.992;2023-05-23T16:18:27;100996.59;;;19.07;100.00
57050;BME280;42935;50.966;16.992;2023-05-23T16:21:44;100995.50;;;18.90;100.00
57050;BME280;42935;50.966;16.992;2023-05-23T16:25:01;100994.82;;;18.44;100.00
57050;BME280;42935;50.966;16.992;2023-05-23T16:28:22;100997.35;;;18.68;100.00
57050;BME280;42935;50.966;16.992;2023-05-23T16:31:37;100995.43;;;18.48;100.00
57050;BME280;42935;50.966;16.992;2023-05-23T16:34:58;100993.50;;;18.45;100.00
57050;BME280;42935;50.966;16.992;2023-05-23T16:38:11;100992.92;;;18.39;100.00
57050;BME280;42935;50.966;16.992;2023-05-23T16:41:26;100991.05;;;18.34;100.00
57050;BME280;42935;50.966;16.992;2023-05-23T16:44:47;100997.73;;;18.15;100.00
57050;BME280;42935;50.966;16.992;2023-05-23T16:48:09;101003.80;;;17.73;100.00
57050;BME280;42935;50.966;16.992;2023-05-23T16:51:30;101005.37;;;17.73;100.00
57050;BME280;42935;50.966;16.992;2023-05-23T16:54:51;101002.60;;;17.46;100.00
57050;BME280;42935;50.966;16.992;2023-05-23T16:58:10;101012.88;;;17.54;100.00
57050;BME280;42935;50.966;16.992;2023-05-23T17:02:02;101014.89;;;17.38;100.00
57050;BME280;42935;50.966;16.992;2023-05-23T17:05:20;101017.41;;;17.49;100.00
57050;BME280;42935;50.966;16.992;2023-05-23T17:08:38;101004.90;;;17.47;100.00
57050;BME280;42935;50.966;16.992;2023-05-23T17:11:59;101022.10;;;17.36;100.00
57050;BME280;42935;50.966;16.992;2023-05-23T17:15:25;101029.45;;;17.42;100.00
57050;BME280;42935;50.966;16.992;2023-05-23T17:18:46;101025.64;;;17.68;100.00
57050;BME280;42935;50.966;16.992;2023-05-23T17:22:02;101032.29;;;17.76;100.00
57050;BME280;42935;50.966;16.992;2023-05-23T17:25:17;101041.84;;;17.85;100.00
57050;BME280;42935;50.966;16.992;2023-05-23T17:29:09;101045.33;;;17.67;100.00
57050;BME280;42935;50.966;16.992;2023-05-23T17:32:31;101052.65;;;17.77;100.00
57050;BME280;42935;50.966;16.992;2023-05-23T17:35:58;101044.76;;;17.97;100.00
57050;BME280;42935;50.966;16.992;2023-05-23T17:39:20;101058.70;;;17.74;100.00
57050;BME280;42935;50.966;16.992;2023-05-23T17:42:40;101060.02;;;17.63;100.00